weather.gov     
National Weather Service

Terminal Aerodrome Forecast
NWS Homepage
This page is being discontinued on March 12, 2014.
The same data is available at this site. Please update your bookmarks.
Thank you, and we apologize for the inconvenience.
Please send an email to SR-SRH.Webmaster@noaa.gov with any concerns.


Current Version
Previous Version:    01  02  03  04  05  06  07  08  09  10  11  12  13  14  15  16  17  18  19  20  21  22  23  24  25  26  27  28  29  30  
   31  
[Printable]
711
FTUS43 KFSD 231100
TAFSUX
TAF
KSUX 231137Z 2312/2412 15020G28KT P6SM BKN080
      TEMPO 2312/2314 -SHRA
     FM231600 15025G34KT P6SM OVC120
     FM240200 14014G21KT 6SM -TSRA OVC030CB
     FM240500 08009KT 6SM -TSRA OVC030CB
     FM240900 32010KT P6SM BKN060=


U.S. Dept. of Commerce
NOAA National Weather Service
1325 East West Highway
Silver Spring, MD 20910
E-mail: w-nws.webmaster@noaa.gov
Page last modified: May 16, 2007
NATIONAL WEATHER SERVICE: for Safety, for Work, for Fun - FOR LIFE